REX weather

General Lucio Blanco International Airport
Reynosa, Tamaulipas, Mexico

Public forecast

Using degrees Celsius for public forecast. Weather courtesy of forecast.io.

METAR (pilot weather report)

Report is more than 2 hours old.

Retrieved 2019/06/27 02:47 UTC (4 hours ago):

MMRX 270247Z 10004KT 8SM SKC 27/23 A3002 RMK SLP157 52024 920 HZY ST

TAF (pilot weather forecast)

Retrieved 2019/06/27 06:00 UTC (25 minutes ago):

TAF MMRX 270556Z 2706/2806 10004KT P6SM SKC FM271000 12005KT 6SM HZ SCT015 TEMPO 2711/2715 3SM BR BKN015 FM271800 13012KT P6SM SCT020 SCT080 PROB40 2722/2802 4SM TSRA BKN020CB OVC080